Time;durP1;ratioP1;P1;durP2;ratioP2;P2;SDS_P1;SDS_P2;PMS_P1;PMS_P2;Temp;Humidity;BMP_temperature;BMP_pressure;BME280_temperature;BME280_humidity;BME280_pressure;Samples;Min_cycle;Max_cycle;Signal;HPM_P1;HPM_P2
2023/08/17 00:01:20;;;;;;;4.22;2.90;;;19.50;99.90;;;;;;5016934;28;20030;-68
2023/08/17 00:03:46;;;;;;;4.63;2.75;;;19.50;99.90;;;;;;5016361;28;20022;-68
2023/08/17 00:06:11;;;;;;;7.63;3.13;;;19.40;99.90;;;;;;5016079;28;20018;-68
2023/08/17 00:08:37;;;;;;;4.15;2.88;;;19.40;99.90;;;;;;5016464;28;20022;-68
2023/08/17 00:11:02;;;;;;;10.48;3.75;;;19.40;99.90;;;;;;5016540;28;20025;-68
2023/08/17 00:13:28;;;;;;;9.52;3.40;;;19.50;99.90;;;;;;5016143;28;20021;-68
2023/08/17 00:15:53;;;;;;;6.70;3.25;;;19.50;99.90;;;;;;5017032;28;20077;-68
2023/08/17 00:18:19;;;;;;;6.80;3.38;;;19.40;99.90;;;;;;5016513;28;20042;-68
2023/08/17 00:20:45;;;;;;;5.22;2.72;;;19.40;99.90;;;;;;5015997;28;20076;-68
2023/08/17 00:23:10;;;;;;;7.95;3.33;;;19.50;99.90;;;;;;5015970;28;20148;-68
2023/08/17 00:25:36;;;;;;;9.05;2.90;;;19.50;99.90;;;;;;5015972;28;20022;-68
2023/08/17 00:28:01;;;;;;;7.38;4.20;;;19.50;99.90;;;;;;5015966;28;20022;-68
2023/08/17 00:30:27;;;;;;;7.40;3.85;;;19.50;99.90;;;;;;5016162;28;20037;-68
2023/08/17 00:32:52;;;;;;;8.48;3.95;;;19.50;99.90;;;;;;5016680;28;20116;-68
2023/08/17 00:35:18;;;;;;;11.35;5.38;;;19.60;99.90;;;;;;5019646;28;20029;-68
2023/08/17 00:37:43;;;;;;;9.85;5.45;;;19.60;99.90;;;;;;5019305;28;20098;-68
2023/08/17 00:40:10;;;;;;;9.82;4.55;;;19.50;99.90;;;;;;5020407;28;20045;-68
2023/08/17 00:42:35;;;;;;;12.80;5.20;;;19.40;99.90;;;;;;5020429;28;20030;-68
2023/08/17 00:45:02;;;;;;;12.35;5.25;;;19.40;99.90;;;;;;5019274;28;20029;-68
2023/08/17 00:47:28;;;;;;;10.88;4.43;;;19.40;99.90;;;;;;5019213;28;20026;-68
2023/08/17 00:49:53;;;;;;;7.75;3.50;;;19.40;99.90;;;;;;5019924;28;20026;-68
2023/08/17 00:52:19;;;;;;;6.53;3.33;;;19.40;99.90;;;;;;5020439;28;20061;-68
2023/08/17 00:54:44;;;;;;;7.35;4.68;;;19.50;99.90;;;;;;5020028;28;20025;-68
2023/08/17 00:57:11;;;;;;;6.68;4.00;;;19.40;99.90;;;;;;5019448;28;20030;-68
2023/08/17 00:59:36;;;;;;;7.20;3.35;;;19.40;99.90;;;;;;5019705;28;20040;-68
2023/08/17 01:02:02;;;;;;;8.82;4.55;;;19.40;99.90;;;;;;5018853;28;20026;-68
2023/08/17 01:04:28;;;;;;;12.45;5.05;;;19.40;99.90;;;;;;5019191;28;20026;-68
2023/08/17 01:06:53;;;;;;;9.90;4.68;;;19.40;99.90;;;;;;5019100;28;20021;-68
2023/08/17 01:09:19;;;;;;;10.30;5.07;;;19.40;99.90;;;;;;5018735;28;20060;-68
2023/08/17 01:11:53;;;;;;;12.35;5.78;;;19.30;99.90;;;;;;5019880;28;20105;-68
2023/08/17 01:14:36;;;;;;;18.08;6.15;;;19.30;99.90;;;;;;5019749;28;20076;-68
2023/08/17 01:17:18;;;;;;;16.65;6.30;;;19.20;99.90;;;;;;5018541;28;20038;-68
2023/08/17 01:19:45;;;;;;;15.05;6.78;;;19.20;99.90;;;;;;5018530;28;20034;-68
2023/08/17 01:22:12;;;;;;;15.77;6.60;;;19.10;99.90;;;;;;5018533;28;20068;-68
2023/08/17 01:24:38;;;;;;;18.10;6.85;;;19.10;99.90;;;;;;5018495;28;20026;-68
2023/08/17 01:27:04;;;;;;;16.80;6.13;;;19.10;99.90;;;;;;5018547;28;20048;-68
2023/08/17 01:29:29;;;;;;;13.65;6.03;;;19.10;99.90;;;;;;5018557;28;20055;-68
2023/08/17 01:32:03;;;;;;;9.20;4.97;;;19.10;99.90;;;;;;5018492;28;20041;-68
2023/08/17 01:34:32;;;;;;;15.85;6.90;;;19.10;99.90;;;;;;5019106;28;20030;-68
2023/08/17 01:37:00;;;;;;;13.55;6.10;;;19.10;99.90;;;;;;5018609;28;20025;-68
2023/08/17 01:39:32;;;;;;;14.98;7.03;;;19.00;99.90;;;;;;5018551;28;20033;-68
2023/08/17 01:41:59;;;;;;;13.20;6.25;;;19.00;99.90;;;;;;5018204;28;20054;-68
2023/08/17 01:44:25;;;;;;;19.85;7.90;;;18.90;99.90;;;;;;5018903;28;20030;-68
2023/08/17 01:46:51;;;;;;;21.05;7.85;;;18.90;99.90;;;;;;5017361;28;20033;-68
2023/08/17 01:49:17;;;;;;;20.75;7.60;;;18.90;99.90;;;;;;5018435;28;20022;-68
2023/08/17 01:51:42;;;;;;;21.48;8.80;;;18.90;99.90;;;;;;5018296;28;20032;-68
2023/08/17 01:54:08;;;;;;;14.90;7.32;;;18.90;99.90;;;;;;5019062;28;20017;-68
2023/08/17 01:56:34;;;;;;;20.13;7.50;;;18.90;99.90;;;;;;5018730;28;20085;-68
2023/08/17 01:58:59;;;;;;;14.18;6.60;;;18.90;99.90;;;;;;5018692;28;20093;-68
2023/08/17 02:01:25;;;;;;;13.05;6.22;;;18.80;99.90;;;;;;5017923;28;20030;-68
2023/08/17 02:03:51;;;;;;;14.95;6.47;;;18.60;99.90;;;;;;5017699;28;20018;-68
2023/08/17 02:06:16;;;;;;;23.00;7.95;;;18.50;99.90;;;;;;5017664;28;20022;-68
2023/08/17 02:08:42;;;;;;;19.48;8.55;;;18.60;99.90;;;;;;5017648;28;20027;-68
2023/08/17 02:11:09;;;;;;;22.42;7.75;;;18.60;99.90;;;;;;5017722;28;20080;-68
2023/08/17 02:13:36;;;;;;;17.50;7.53;;;18.60;99.90;;;;;;5018490;28;20068;-68
2023/08/17 02:16:03;;;;;;;15.07;6.93;;;18.60;99.90;;;;;;5018309;28;20022;-68
2023/08/17 02:18:31;;;;;;;19.88;7.72;;;18.60;99.90;;;;;;5017441;28;20113;-68
2023/08/17 02:20:56;;;;;;;19.52;7.80;;;18.60;99.90;;;;;;5017466;28;20026;-68
2023/08/17 02:23:22;;;;;;;17.08;7.85;;;18.60;99.90;;;;;;5018660;28;20032;-68
2023/08/17 02:25:48;;;;;;;22.50;7.78;;;18.60;99.90;;;;;;5018426;28;20029;-68
2023/08/17 02:28:13;;;;;;;21.13;8.13;;;18.60;99.90;;;;;;5018203;28;20026;-68
2023/08/17 02:30:39;;;;;;;16.50;7.78;;;18.60;99.90;;;;;;5017403;28;20026;-68
2023/08/17 02:33:04;;;;;;;15.88;6.32;;;18.50;99.90;;;;;;5018098;28;20034;-68
2023/08/17 02:35:30;;;;;;;17.88;7.35;;;18.50;99.90;;;;;;5017514;28;20017;-68
2023/08/17 02:37:56;;;;;;;14.05;6.35;;;18.40;99.90;;;;;;5018339;28;20037;-68
2023/08/17 02:40:21;;;;;;;22.10;7.97;;;18.40;99.90;;;;;;5042122;22;20050;-68
2023/08/17 02:42:47;;;;;;;18.95;7.05;;;18.40;99.90;;;;;;5017086;28;20029;-68
2023/08/17 02:45:12;;;;;;;14.70;7.43;;;18.30;99.90;;;;;;5018025;28;20030;-68
2023/08/17 02:47:38;;;;;;;18.02;8.20;;;18.30;99.90;;;;;;5017749;28;20029;-68
2023/08/17 02:50:04;;;;;;;24.88;9.07;;;18.30;99.90;;;;;;5016828;28;20112;-68
2023/08/17 02:52:29;;;;;;;21.50;9.07;;;18.40;99.90;;;;;;5017172;28;20022;-68
2023/08/17 02:54:55;;;;;;;25.45;8.43;;;18.40;99.90;;;;;;5016925;28;20029;-68
2023/08/17 02:57:20;;;;;;;18.77;6.70;;;18.50;99.90;;;;;;5017719;28;20029;-68
2023/08/17 02:59:46;;;;;;;16.80;6.75;;;18.50;99.90;;;;;;5017083;28;20029;-68
2023/08/17 03:02:12;;;;;;;16.00;6.03;;;18.40;99.90;;;;;;5017577;28;20038;-68
2023/08/17 03:04:37;;;;;;;15.75;5.75;;;18.40;99.90;;;;;;5017830;28;20014;-68
2023/08/17 03:07:03;;;;;;;36.80;6.72;;;18.40;99.90;;;;;;5017075;28;20018;-68
2023/08/17 03:09:28;;;;;;;107.50;9.55;;;18.40;99.90;;;;;;5016582;28;20026;-68
2023/08/17 03:11:54;;;;;;;130.02;10.60;;;18.30;99.90;;;;;;5016768;28;20026;-68
2023/08/17 03:14:19;;;;;;;93.40;10.02;;;18.20;99.90;;;;;;5016763;28;20040;-68
2023/08/17 03:16:45;;;;;;;75.32;7.57;;;18.20;99.90;;;;;;5017379;28;20026;-68
2023/08/17 03:19:11;;;;;;;67.63;7.75;;;18.20;99.90;;;;;;5016702;28;20022;-68
2023/08/17 03:21:37;;;;;;;21.10;6.10;;;18.30;99.90;;;;;;5016419;28;20026;-68
2023/08/17 03:24:03;;;;;;;37.38;7.00;;;18.40;99.90;;;;;;5017397;28;20026;-68
2023/08/17 03:26:28;;;;;;;40.40;7.13;;;18.50;99.90;;;;;;5017236;28;20018;-68
2023/08/17 03:28:54;;;;;;;30.77;6.50;;;18.60;99.90;;;;;;5016531;28;20024;-68
2023/08/17 03:31:23;;;;;;;26.60;6.30;;;18.70;99.90;;;;;;5016424;28;20026;-68
2023/08/17 03:33:49;;;;;;;29.75;6.53;;;18.80;99.90;;;;;;5017283;28;20104;-68
2023/08/17 03:36:15;;;;;;;56.15;7.22;;;18.80;99.90;;;;;;5017202;28;20104;-67
2023/08/17 03:38:40;;;;;;;23.55;5.68;;;18.80;99.90;;;;;;5016195;28;20050;-68
2023/08/17 03:41:06;;;;;;;21.65;6.38;;;18.80;99.90;;;;;;5017339;28;20026;-68
2023/08/17 03:43:32;;;;;;;30.15;6.00;;;18.90;99.90;;;;;;5016362;28;20025;-68
2023/08/17 03:45:57;;;;;;;15.25;6.47;;;18.90;99.90;;;;;;5016337;28;20024;-68
2023/08/17 03:48:23;;;;;;;18.80;5.90;;;18.90;99.90;;;;;;5016461;28;20113;-68
2023/08/17 03:50:54;;;;;;;33.30;6.50;;;18.90;99.90;;;;;;5016232;28;20026;-68
2023/08/17 03:53:19;;;;;;;32.03;5.63;;;18.90;99.90;;;;;;5016895;28;20026;-68
2023/08/17 03:55:49;;;;;;;26.83;6.15;;;18.80;99.90;;;;;;5016126;28;20022;-68
2023/08/17 03:58:15;;;;;;;71.78;7.88;;;18.90;99.90;;;;;;5017017;28;20052;-68
2023/08/17 04:00:42;;;;;;;28.35;6.20;;;18.90;99.90;;;;;;5017099;28;20018;-68
2023/08/17 04:03:07;;;;;;;25.33;6.57;;;18.90;99.90;;;;;;5017017;28;20025;-68
2023/08/17 04:05:33;;;;;;;18.17;6.18;;;19.00;99.90;;;;;;5016098;28;20022;-68
2023/08/17 04:08:02;;;;;;;50.90;6.72;;;19.00;99.90;;;;;;5016891;28;20026;-68
2023/08/17 04:10:28;;;;;;;42.78;7.50;;;19.00;99.90;;;;;;5019843;28;20022;-68
2023/08/17 04:12:54;;;;;;;76.32;7.20;;;18.90;99.90;;;;;;5019788;28;20026;-68
2023/08/17 04:15:19;;;;;;;31.42;6.93;;;18.60;99.90;;;;;;5019777;28;20029;-68
2023/08/17 04:17:45;;;;;;;23.38;6.82;;;18.60;99.90;;;;;;5020679;28;20041;-68
2023/08/17 04:20:11;;;;;;;66.78;6.93;;;18.70;99.90;;;;;;5019506;28;20026;-68
2023/08/17 04:22:37;;;;;;;30.73;6.47;;;18.80;99.90;;;;;;5019926;28;20026;-68
2023/08/17 04:25:03;;;;;;;32.45;6.15;;;18.60;99.90;;;;;;5020302;28;20026;-68
2023/08/17 04:27:29;;;;;;;61.45;7.32;;;18.70;99.90;;;;;;5019918;28;20022;-68
2023/08/17 04:29:54;;;;;;;111.40;9.93;;;18.70;99.90;;;;;;5019468;28;20034;-68
2023/08/17 04:32:20;;;;;;;62.55;7.70;;;18.50;99.90;;;;;;5020681;28;20026;-68
2023/08/17 04:34:46;;;;;;;29.45;7.00;;;18.60;99.90;;;;;;5019739;28;20030;-68
2023/08/17 04:37:11;;;;;;;23.17;5.65;;;18.70;99.90;;;;;;5019497;28;20033;-68
2023/08/17 04:39:37;;;;;;;49.75;7.43;;;18.80;99.90;;;;;;5019346;28;20041;-68
2023/08/17 04:42:03;;;;;;;31.27;6.10;;;18.80;99.90;;;;;;5019631;28;20026;-68
2023/08/17 04:44:29;;;;;;;22.02;6.78;;;18.80;99.90;;;;;;5019404;28;20025;-68
2023/08/17 04:46:54;;;;;;;20.67;7.07;;;18.80;99.90;;;;;;5020226;28;20022;-68
2023/08/17 04:49:20;;;;;;;9.90;5.38;;;18.90;99.90;;;;;;5019161;28;20049;-68
2023/08/17 04:51:45;;;;;;;12.05;5.38;;;18.90;99.90;;;;;;5020301;28;20029;-68
2023/08/17 04:54:11;;;;;;;14.35;5.97;;;19.00;99.90;;;;;;5019989;28;20038;-68
2023/08/17 04:56:36;;;;;;;11.80;5.55;;;19.10;99.90;;;;;;5019119;28;20036;-68
2023/08/17 04:59:02;;;;;;;19.55;7.07;;;19.10;99.90;;;;;;5019736;28;20037;-68
2023/08/17 05:01:27;;;;;;;21.58;7.07;;;19.10;99.90;;;;;;5019700;28;20021;-68
2023/08/17 05:03:53;;;;;;;27.08;6.95;;;19.20;99.90;;;;;;5020025;28;20029;-68
2023/08/17 05:06:18;;;;;;;20.80;7.82;;;19.20;99.90;;;;;;5018788;28;20026;-68
2023/08/17 05:08:44;;;;;;;29.92;6.53;;;19.10;99.90;;;;;;5019557;28;20014;-68
2023/08/17 05:11:10;;;;;;;16.65;6.35;;;19.20;99.90;;;;;;5018873;28;20022;-68
2023/08/17 05:13:35;;;;;;;17.80;6.18;;;19.20;99.90;;;;;;5020231;28;20065;-68
2023/08/17 05:16:01;;;;;;;20.40;6.57;;;19.20;99.90;;;;;;5020154;28;20033;-68
2023/08/17 05:18:26;;;;;;;18.60;6.15;;;19.20;99.90;;;;;;5018531;28;20030;-68
2023/08/17 05:20:53;;;;;;;19.27;7.25;;;19.20;99.90;;;;;;5017297;28;20120;-68
2023/08/17 05:23:18;;;;;;;24.05;6.50;;;19.20;99.90;;;;;;5019447;28;20026;-68
2023/08/17 05:25:47;;;;;;;15.63;6.53;;;19.30;99.90;;;;;;5018501;28;20029;-68
2023/08/17 05:28:13;;;;;;;8.75;4.95;;;19.40;99.90;;;;;;5018489;28;20026;-68
2023/08/17 05:30:39;;;;;;;12.77;5.60;;;19.40;99.90;;;;;;5018669;28;20084;-68
2023/08/17 05:33:04;;;;;;;9.80;5.38;;;19.30;99.90;;;;;;5019247;28;20077;-68
2023/08/17 05:35:30;;;;;;;11.48;5.68;;;19.30;99.90;;;;;;5018230;28;20032;-68
2023/08/17 05:37:55;;;;;;;11.77;5.85;;;19.30;99.90;;;;;;5018290;28;20029;-68
2023/08/17 05:40:21;;;;;;;9.77;5.10;;;19.30;99.90;;;;;;5018053;28;20038;-68
2023/08/17 05:42:46;;;;;;;16.80;6.28;;;19.20;99.90;;;;;;5018114;28;20065;-68
2023/08/17 05:45:12;;;;;;;10.10;5.70;;;19.20;99.90;;;;;;5018465;28;20053;-68
2023/08/17 05:47:37;;;;;;;11.52;5.38;;;19.20;99.90;;;;;;5018684;28;20061;-68
2023/08/17 05:50:03;;;;;;;8.15;4.90;;;19.10;99.90;;;;;;5018366;28;20156;-68
2023/08/17 05:52:29;;;;;;;9.48;4.95;;;19.10;99.90;;;;;;5018048;28;20026;-68
2023/08/17 05:54:54;;;;;;;8.95;5.22;;;19.20;99.90;;;;;;5017922;28;20029;-68
2023/08/17 05:57:20;;;;;;;6.10;4.30;;;19.20;99.90;;;;;;5017949;28;20049;-67
2023/08/17 05:59:45;;;;;;;7.55;4.10;;;19.10;99.90;;;;;;5017738;28;20049;-68
2023/08/17 06:02:11;;;;;;;9.45;5.00;;;19.20;99.90;;;;;;5017826;28;20030;-68
2023/08/17 06:04:36;;;;;;;8.35;4.75;;;19.10;99.90;;;;;;5017716;28;20024;-67
2023/08/17 06:07:02;;;;;;;6.35;4.28;;;19.00;99.90;;;;;;5017761;28;20029;-68
2023/08/17 06:09:27;;;;;;;9.98;5.25;;;18.90;99.90;;;;;;5017729;28;20022;-68
2023/08/17 06:11:53;;;;;;;9.48;5.30;;;19.00;99.90;;;;;;5017378;28;20025;-67
2023/08/17 06:14:18;;;;;;;7.90;4.70;;;19.10;99.90;;;;;;5017568;28;20034;-68
2023/08/17 06:16:44;;;;;;;8.48;4.38;;;19.20;99.90;;;;;;5017446;28;20033;-68
2023/08/17 06:19:09;;;;;;;9.80;5.60;;;19.20;99.90;;;;;;5018721;28;20155;-68
2023/08/17 06:21:35;;;;;;;7.10;4.60;;;19.20;99.90;;;;;;5017341;28;20117;-67
2023/08/17 06:24:00;;;;;;;6.43;3.72;;;19.40;99.90;;;;;;5018406;28;20109;-68
2023/08/17 06:26:26;;;;;;;5.25;3.80;;;19.40;99.90;;;;;;5017418;28;20024;-68
2023/08/17 06:28:51;;;;;;;9.07;4.68;;;19.40;99.90;;;;;;5017175;28;20033;-68
2023/08/17 06:31:17;;;;;;;6.13;4.53;;;19.40;99.90;;;;;;5017901;28;20030;-68
2023/08/17 06:33:43;;;;;;;10.15;5.07;;;19.40;99.90;;;;;;5017587;28;20030;-70
2023/08/17 06:36:08;;;;;;;7.18;5.43;;;19.40;99.90;;;;;;5017450;28;20029;-70
2023/08/17 06:38:34;;;;;;;8.30;5.13;;;19.60;99.90;;;;;;5017949;28;20025;-70
2023/08/17 06:40:59;;;;;;;9.68;4.90;;;19.70;99.90;;;;;;5018001;28;20022;-70
2023/08/17 06:43:25;;;;;;;9.95;6.00;;;19.70;99.90;;;;;;5017507;28;20068;-70
2023/08/17 06:45:50;;;;;;;7.55;5.68;;;19.60;99.90;;;;;;5017125;28;20022;-70
2023/08/17 06:48:16;;;;;;;11.25;5.78;;;19.60;99.90;;;;;;5017814;28;20052;-70
2023/08/17 06:50:41;;;;;;;7.63;5.57;;;19.60;99.90;;;;;;5017293;28;20032;-70
2023/08/17 06:53:07;;;;;;;7.97;5.25;;;19.40;99.90;;;;;;5017177;28;20026;-70
2023/08/17 06:55:32;;;;;;;7.85;3.83;;;19.30;99.90;;;;;;5018053;28;20029;-70
2023/08/17 06:57:58;;;;;;;4.90;3.40;;;19.30;99.90;;;;;;5016877;28;20021;-70
2023/08/17 07:00:24;;;;;;;5.95;3.78;;;19.30;99.90;;;;;;5016783;28;20073;-70
2023/08/17 07:02:50;;;;;;;5.72;4.22;;;19.40;99.90;;;;;;5016766;28;20029;-70
2023/08/17 07:05:16;;;;;;;9.23;5.18;;;19.40;99.90;;;;;;5016680;28;20018;-70
2023/08/17 07:07:42;;;;;;;8.65;5.07;;;19.30;99.90;;;;;;5017727;28;20105;-70
2023/08/17 07:10:09;;;;;;;6.93;4.38;;;19.30;99.90;;;;;;5016604;28;20022;-69
2023/08/17 07:12:34;;;;;;;8.88;5.25;;;19.30;99.90;;;;;;5016989;28;20149;-69
2023/08/17 07:15:00;;;;;;;8.45;5.00;;;19.30;99.90;;;;;;5016927;28;20037;-69
2023/08/17 07:17:25;;;;;;;8.10;4.47;;;19.40;99.90;;;;;;5016550;28;20022;-70
2023/08/17 07:19:51;;;;;;;4.75;3.50;;;19.50;99.90;;;;;;5016353;28;20030;-70
2023/08/17 07:22:16;;;;;;;4.55;3.10;;;19.60;99.90;;;;;;5016840;28;20068;-69
2023/08/17 07:24:42;;;;;;;7.13;4.22;;;19.60;99.90;;;;;;5017376;28;20080;-69
2023/08/17 07:27:08;;;;;;;8.27;5.38;;;19.60;99.90;;;;;;5017227;28;20026;-69
2023/08/17 07:29:33;;;;;;;6.38;4.28;;;19.60;99.90;;;;;;5016437;28;20120;-69
2023/08/17 07:32:01;;;;;;;8.60;5.03;;;19.60;99.90;;;;;;5016791;28;20060;-69
2023/08/17 07:34:28;;;;;;;6.55;4.43;;;19.70;99.90;;;;;;5017087;28;20029;-69
2023/08/17 07:36:53;;;;;;;8.60;5.22;;;19.70;99.90;;;;;;5016337;28;20106;-69
2023/08/17 07:39:19;;;;;;;6.72;4.53;;;19.60;99.90;;;;;;5016446;28;20034;-69
2023/08/17 07:41:44;;;;;;;8.88;5.63;;;19.50;99.90;;;;;;5016314;28;20026;-69
2023/08/17 07:44:11;;;;;;;8.27;5.50;;;19.40;99.90;;;;;;5018615;28;20021;-69
2023/08/17 07:46:36;;;;;;;9.93;5.63;;;19.50;99.90;;;;;;5020673;28;20037;-69
2023/08/17 07:49:02;;;;;;;14.05;6.00;;;19.60;99.90;;;;;;5020320;28;20029;-69
2023/08/17 07:51:29;;;;;;;12.20;5.95;;;19.60;99.90;;;;;;5020681;28;20120;-69
2023/08/17 07:53:55;;;;;;;11.02;5.90;;;19.50;99.90;;;;;;5020263;28;20049;-69
2023/08/17 07:56:21;;;;;;;10.88;6.78;;;19.50;99.90;;;;;;5020964;28;20022;-69
2023/08/17 07:58:46;;;;;;;13.95;7.43;;;19.60;99.90;;;;;;5021166;28;20069;-69
2023/08/17 08:01:12;;;;;;;10.02;6.82;;;19.60;99.90;;;;;;5020358;28;20033;-69
2023/08/17 08:03:37;;;;;;;13.10;7.25;;;19.50;99.90;;;;;;5020339;28;20080;-69
2023/08/17 08:06:03;;;;;;;11.57;6.63;;;19.50;99.90;;;;;;5020364;28;20026;-69
2023/08/17 08:08:28;;;;;;;13.48;6.97;;;19.50;99.90;;;;;;5020304;28;20071;-69
2023/08/17 08:10:54;;;;;;;11.35;6.57;;;19.60;99.90;;;;;;5019941;28;20018;-70
2023/08/17 08:13:20;;;;;;;14.27;7.82;;;19.60;99.90;;;;;;5020079;28;20030;-70
2023/08/17 08:15:45;;;;;;;12.90;6.82;;;19.60;99.90;;;;;;5019838;28;20030;-70
2023/08/17 08:18:11;;;;;;;14.40;6.95;;;19.70;99.90;;;;;;5020332;28;20022;-70
2023/08/17 08:20:37;;;;;;;12.68;6.90;;;19.70;99.90;;;;;;5019733;28;20032;-70
2023/08/17 08:23:03;;;;;;;10.02;6.20;;;19.70;99.90;;;;;;5019741;28;20030;-69
2023/08/17 08:25:28;;;;;;;11.60;6.90;;;19.70;99.90;;;;;;5020367;28;20105;-69
2023/08/17 08:27:54;;;;;;;11.77;6.43;;;19.80;99.90;;;;;;5020026;28;20044;-68
2023/08/17 08:30:20;;;;;;;11.30;7.10;;;20.00;99.90;;;;;;5019766;28;20068;-67
2023/08/17 08:32:45;;;;;;;12.48;6.40;;;20.10;99.90;;;;;;5019511;28;20026;-70
2023/08/17 08:35:11;;;;;;;9.00;5.85;;;20.20;99.90;;;;;;5019906;28;20026;-69
2023/08/17 08:37:36;;;;;;;8.98;6.00;;;20.20;99.90;;;;;;5020027;28;20025;-69
2023/08/17 08:40:02;;;;;;;11.68;5.72;;;20.20;99.90;;;;;;5030983;22;20045;-65
2023/08/17 08:42:28;;;;;;;10.88;6.57;;;20.30;99.90;;;;;;5016873;28;20027;-65
2023/08/17 08:44:53;;;;;;;9.32;6.00;;;20.30;99.90;;;;;;5000119;28;20097;-65
2023/08/17 08:47:19;;;;;;;8.23;5.78;;;20.40;99.90;;;;;;5016315;28;20022;-65
2023/08/17 08:49:57;;;;;;;11.32;6.00;;;20.40;99.90;;;;;;5016630;28;20022;-65
2023/08/17 08:52:27;;;;;;;7.57;5.20;;;20.50;99.90;;;;;;5016039;28;20022;-65
2023/08/17 08:54:57;;;;;;;8.23;5.47;;;20.50;99.90;;;;;;5016267;28;20030;-65
2023/08/17 08:57:23;;;;;;;8.48;5.63;;;20.60;99.90;;;;;;5015912;28;20026;-65
2023/08/17 08:59:49;;;;;;;8.02;5.72;;;20.60;99.90;;;;;;5016251;28;20037;-65
2023/08/17 09:02:16;;;;;;;8.32;5.45;;;20.70;99.90;;;;;;5000288;28;20030;-65
2023/08/17 09:04:44;;;;;;;7.10;4.78;;;20.70;99.90;;;;;;5016073;28;20026;-65
2023/08/17 09:07:13;;;;;;;9.93;4.88;;;20.80;99.90;;;;;;4999335;28;20022;-65
2023/08/17 09:09:38;;;;;;;8.45;4.50;;;20.90;99.90;;;;;;5016365;28;20078;-65
2023/08/17 09:12:07;;;;;;;7.45;5.30;;;20.90;99.90;;;;;;5015609;28;20026;-65
2023/08/17 09:14:33;;;;;;;7.10;4.90;;;21.00;99.90;;;;;;5015490;28;20121;-65
2023/08/17 09:16:58;;;;;;;6.95;5.22;;;21.00;99.90;;;;;;5000270;28;20219;-65
2023/08/17 09:19:24;;;;;;;8.85;5.78;;;21.10;99.90;;;;;;4999191;28;20026;-65
2023/08/17 09:21:50;;;;;;;8.45;5.55;;;21.10;99.90;;;;;;5015407;28;20112;-65
2023/08/17 09:24:15;;;;;;;8.68;5.45;;;21.10;99.90;;;;;;4999118;28;20027;-65
2023/08/17 09:26:41;;;;;;;10.35;6.00;;;21.10;99.90;;;;;;5015238;28;20018;-65
2023/08/17 09:29:18;;;;;;;7.75;5.55;;;21.10;99.90;;;;;;5000168;28;20023;-65
2023/08/17 09:31:43;;;;;;;7.75;5.18;;;21.10;99.90;;;;;;5015623;28;20030;-65
2023/08/17 09:34:09;;;;;;;7.18;4.60;;;21.20;99.90;;;;;;5015174;28;20093;-65
2023/08/17 09:36:39;;;;;;;6.63;4.60;;;21.30;99.90;;;;;;4998793;28;20111;-65
2023/08/17 09:39:05;;;;;;;7.32;4.28;;;21.40;99.90;;;;;;4998606;28;20088;-65
2023/08/17 09:41:37;;;;;;;7.53;4.05;;;21.50;99.90;;;;;;5015587;28;20030;-65
2023/08/17 09:44:03;;;;;;;5.80;4.55;;;21.60;99.90;;;;;;4998996;28;20027;-65
2023/08/17 09:46:29;;;;;;;5.47;4.35;;;21.50;99.90;;;;;;5014983;28;20029;-65
2023/08/17 09:48:55;;;;;;;6.47;4.05;;;21.50;99.90;;;;;;5014900;28;20121;-65
2023/08/17 09:51:21;;;;;;;8.18;4.80;;;21.60;99.90;;;;;;5014831;28;20029;-65
2023/08/17 09:53:52;;;;;;;6.30;3.97;;;21.60;99.90;;;;;;5014668;28;20015;-65
2023/08/17 09:56:21;;;;;;;5.85;4.47;;;21.70;99.90;;;;;;5015579;28;20030;-65
2023/08/17 09:58:46;;;;;;;8.23;4.50;;;21.70;99.90;;;;;;5015002;28;20030;-65
2023/08/17 10:01:13;;;;;;;7.88;4.13;;;21.60;99.90;;;;;;5014610;28;20018;-65
2023/08/17 10:03:45;;;;;;;5.20;3.95;;;21.60;99.90;;;;;;5015473;28;20093;-65
2023/08/17 10:06:13;;;;;;;6.68;3.40;;;21.70;99.90;;;;;;4997770;28;20027;-65
2023/08/17 10:08:50;;;;;;;6.55;3.80;;;21.70;99.90;;;;;;4998982;28;20023;-65
2023/08/17 10:11:19;;;;;;;4.43;3.83;;;21.80;99.90;;;;;;5014462;28;20018;-65
2023/08/17 10:14:05;;;;;;;5.82;3.53;;;21.80;99.90;;;;;;4999011;28;20030;-65
2023/08/17 10:16:39;;;;;;;4.22;3.58;;;21.90;99.90;;;;;;4998950;28;20042;-65
2023/08/17 10:19:18;;;;;;;4.45;3.28;;;22.00;99.90;;;;;;5014242;28;20022;-65
2023/08/17 10:22:01;;;;;;;7.82;3.55;;;22.00;99.90;;;;;;4997788;28;20122;-65
2023/08/17 10:24:27;;;;;;;4.75;3.38;;;22.20;99.90;;;;;;4998406;28;20057;-65
2023/08/17 10:26:53;;;;;;;4.13;3.35;;;22.10;99.90;;;;;;5014057;28;20029;-65
2023/08/17 10:29:22;;;;;;;4.57;3.65;;;22.20;99.90;;;;;;4997731;28;20026;-65
2023/08/17 10:31:49;;;;;;;5.57;3.53;;;22.30;99.90;;;;;;5014895;28;20026;-65
2023/08/17 10:34:15;;;;;;;4.32;3.38;;;22.70;99.90;;;;;;4998750;28;20078;-65
2023/08/17 10:36:41;;;;;;;4.18;3.15;;;23.10;99.90;;;;;;5013977;28;20022;-65
2023/08/17 10:39:34;;;;;;;5.45;3.08;;;23.40;99.90;;;;;;5014209;28;20034;-65
2023/08/17 10:42:01;;;;;;;3.05;2.75;;;23.60;99.90;;;;;;4994237;28;20104;-65
2023/08/17 10:44:45;;;;;;;3.08;2.78;;;23.90;99.90;;;;;;4998503;28;20022;-65
2023/08/17 10:47:24;;;;;;;4.75;2.60;;;24.20;99.90;;;;;;4998306;28;20080;-65
2023/08/17 10:50:04;;;;;;;4.20;2.97;;;24.40;99.90;;;;;;5013895;28;20033;-66
2023/08/17 10:52:37;;;;;;;3.30;2.30;;;24.90;99.90;;;;;;4998449;28;20116;-65
2023/08/17 10:55:09;;;;;;;3.17;2.78;;;24.90;99.90;;;;;;4998133;28;20026;-65
2023/08/17 10:57:40;;;;;;;4.18;3.40;;;24.90;99.90;;;;;;5013711;28;20093;-65
2023/08/17 11:00:15;;;;;;;3.92;3.30;;;24.80;99.90;;;;;;5013845;28;20023;-66
2023/08/17 11:02:43;;;;;;;4.07;3.55;;;24.60;99.90;;;;;;4998046;28;20022;-65
2023/08/17 11:05:12;;;;;;;5.05;3.15;;;24.40;99.90;;;;;;5013702;28;20025;-65
2023/08/17 11:07:41;;;;;;;3.55;2.70;;;24.30;99.90;;;;;;4997986;28;20018;-65
2023/08/17 11:10:29;;;;;;;4.65;3.15;;;24.40;99.90;;;;;;5014118;28;20026;-65
2023/08/17 11:12:59;;;;;;;3.25;2.88;;;24.60;99.90;;;;;;4997090;28;20026;-65
2023/08/17 11:15:26;;;;;;;4.80;2.63;;;24.90;99.90;;;;;;5013567;28;20030;-65
2023/08/17 11:17:52;;;;;;;4.82;2.80;;;25.10;99.90;;;;;;4997903;28;20033;-65
2023/08/17 11:20:18;;;;;;;5.80;3.03;;;25.20;99.90;;;;;;4998075;28;20027;-65
2023/08/17 11:22:46;;;;;;;5.05;2.55;;;25.20;99.90;;;;;;4998146;28;20229;-65
2023/08/17 11:25:12;;;;;;;3.58;2.92;;;25.20;99.90;;;;;;5013373;28;20023;-65
2023/08/17 11:27:38;;;;;;;3.53;2.60;;;25.30;99.90;;;;;;5013218;28;20025;-65
2023/08/17 11:30:05;;;;;;;4.00;3.15;;;25.90;99.90;;;;;;5013283;28;20046;-66
2023/08/17 11:32:30;;;;;;;3.83;3.33;;;26.40;99.90;;;;;;5013174;28;20030;-66
2023/08/17 11:34:56;;;;;;;4.75;2.97;;;26.20;99.90;;;;;;4997864;28;20027;-65
2023/08/17 11:37:22;;;;;;;3.65;3.25;;;25.70;99.90;;;;;;5013237;28;20027;-65
2023/08/17 11:39:47;;;;;;;3.65;3.13;;;25.40;99.90;;;;;;5013299;28;20038;-65
2023/08/17 11:42:13;;;;;;;3.45;3.15;;;25.30;99.90;;;;;;5013042;28;20038;-65
2023/08/17 11:44:38;;;;;;;4.22;3.17;;;25.20;99.90;;;;;;5013127;28;20030;-65
2023/08/17 11:47:04;;;;;;;5.15;2.53;;;25.20;99.90;;;;;;4996688;28;20019;-65
2023/08/17 11:49:31;;;;;;;3.97;3.05;;;25.50;99.90;;;;;;5013256;28;20034;-66
2023/08/17 11:51:57;;;;;;;3.22;2.90;;;26.20;99.90;;;;;;5013632;28;20026;-65
2023/08/17 11:54:22;;;;;;;4.07;2.80;;;26.30;99.90;;;;;;5013867;28;20033;-65
2023/08/17 11:56:48;;;;;;;3.10;2.70;;;26.20;99.90;;;;;;5013053;28;20034;-65
2023/08/17 11:59:14;;;;;;;4.63;2.45;;;26.00;99.90;;;;;;5013404;28;20023;-65
2023/08/17 12:01:40;;;;;;;3.90;2.92;;;26.20;99.90;;;;;;4997319;28;20035;-65
2023/08/17 12:04:06;;;;;;;3.03;2.35;;;26.50;99.90;;;;;;4996514;28;20054;-66
2023/08/17 12:06:32;;;;;;;4.45;2.78;;;27.50;99.90;;;;;;5013211;28;20094;-66
2023/08/17 12:08:57;;;;;;;3.03;2.80;;;27.80;99.90;;;;;;4997309;28;20046;-66
2023/08/17 12:11:26;;;;;;;3.28;2.80;;;28.00;99.90;;;;;;5012814;28;20050;-66
2023/08/17 12:13:53;;;;;;;2.88;2.45;;;28.30;99.90;;;;;;5013484;28;20069;-66
2023/08/17 12:16:20;;;;;;;6.10;3.05;;;28.10;99.90;;;;;;4997632;28;20018;-66
2023/08/17 12:18:52;;;;;;;2.85;2.53;;;27.70;99.90;;;;;;5013003;28;20030;-66
2023/08/17 12:21:22;;;;;;;4.38;2.60;;;27.70;99.90;;;;;;4997273;28;20102;-65
2023/08/17 12:23:48;;;;;;;4.53;2.70;;;28.10;99.90;;;;;;5012645;28;20023;-66
2023/08/17 12:26:23;;;;;;;3.10;2.60;;;29.10;99.90;;;;;;5012633;28;20023;-66
2023/08/17 12:28:52;;;;;;;3.92;2.60;;;30.30;99.90;;;;;;5012569;28;20018;-66
2023/08/17 12:31:22;;;;;;;7.07;2.72;;;31.00;99.90;;;;;;5016086;28;20022;-66
2023/08/17 12:33:48;;;;;;;;;;;30.30;99.90;;;;;;5001629;28;20042;-66
2023/08/17 12:36:13;;;;;;;3.35;2.50;;;29.80;99.90;;;;;;5016426;28;19906;-66
2023/08/17 12:38:44;;;;;;;2.47;2.25;;;29.60;99.90;;;;;;5000900;28;20023;-66
2023/08/17 12:41:10;;;;;;;4.30;2.40;;;30.00;99.90;;;;;;5015158;28;20033;-66